createdAt,value
2023-04-23T00:01:35.391Z,80.80
2023-04-23T00:04:30.156Z,81.56
2023-04-23T00:06:59.602Z,81.21
2023-04-23T00:09:35.060Z,81.71
2023-04-23T00:12:09.119Z,81.27
2023-04-23T00:14:38.129Z,81.29
2023-04-23T00:17:06.397Z,81.71
2023-04-23T00:19:34.633Z,81.54
2023-04-23T00:22:03.128Z,81.94
2023-04-23T00:24:31.989Z,81.61
2023-04-23T00:27:06.077Z,82.18
2023-04-23T00:29:34.331Z,82.62
2023-04-23T00:32:03.385Z,82.56
2023-04-23T00:34:32.371Z,83.18
2023-04-23T00:37:00.639Z,82.87
2023-04-23T00:39:28.920Z,83.36
2023-04-23T00:41:57.210Z,83.63
2023-04-23T00:44:26.752Z,83.68
2023-04-23T00:46:56.035Z,83.28
2023-04-23T00:49:25.382Z,83.91
2023-04-23T00:51:53.583Z,83.40
2023-04-23T00:54:22.087Z,83.73
2023-04-23T00:56:51.173Z,84.08
2023-04-23T00:59:19.528Z,84.12
2023-04-23T01:01:49.657Z,83.64
2023-04-23T01:04:20.122Z,82.25
2023-04-23T01:06:49.203Z,82.21
2023-04-23T01:09:18.879Z,82.08
2023-04-23T01:11:50.962Z,82.21
2023-04-23T01:14:19.215Z,81.64
2023-04-23T01:16:49.127Z,82.16
2023-04-23T01:19:17.835Z,82.46
2023-04-23T01:21:46.458Z,82.72
2023-04-23T01:24:15.958Z,83.87
2023-04-23T01:26:44.749Z,83.22
2023-04-23T01:29:13.746Z,83.31
2023-04-23T01:31:43.171Z,83.75
2023-04-23T01:34:12.216Z,84.57
2023-04-23T01:36:42.351Z,84.67
2023-04-23T01:39:10.733Z,84.38
2023-04-23T01:41:40.918Z,84.49
2023-04-23T01:44:09.083Z,84.96
2023-04-23T01:46:37.793Z,84.76
2023-04-23T01:49:06.226Z,85.28
2023-04-23T01:51:34.535Z,85.65
2023-04-23T01:54:02.761Z,85.89
2023-04-23T01:56:33.350Z,86.20
2023-04-23T01:59:03.007Z,86.96
2023-04-23T02:01:44.447Z,86.02
2023-04-23T02:04:18.553Z,86.95
2023-04-23T02:06:51.149Z,87.12
2023-04-23T02:09:21.200Z,88.09
2023-04-23T02:11:49.812Z,87.58
2023-04-23T02:14:19.386Z,87.65
2023-04-23T02:16:49.672Z,87.64
2023-04-23T02:19:18.767Z,88.00
2023-04-23T02:21:46.947Z,87.89
2023-04-23T02:24:15.156Z,88.40
2023-04-23T02:26:43.799Z,89.47
2023-04-23T02:29:11.937Z,90.64
2023-04-23T02:31:41.515Z,92.83
2023-04-23T02:34:09.761Z,94.09
2023-04-23T02:36:38.265Z,95.48
2023-04-23T02:39:06.474Z,96.80
2023-04-23T02:41:34.688Z,98.24
2023-04-23T02:44:02.886Z,98.89
2023-04-23T02:46:31.739Z,100.00
2023-04-23T02:49:01.323Z,100.00
2023-04-23T02:51:29.657Z,100.00
2023-04-23T02:53:58.192Z,100.00
2023-04-23T02:56:26.625Z,100.00
2023-04-23T02:58:54.828Z,100.00
2023-04-23T03:01:23.264Z,100.00
2023-04-23T03:03:52.075Z,100.00
2023-04-23T03:06:22.419Z,100.00
2023-04-23T03:08:50.609Z,100.00
2023-04-23T03:11:19.455Z,100.00
2023-04-23T03:13:47.742Z,100.00
2023-04-23T03:16:16.741Z,100.00
2023-04-23T03:18:45.439Z,100.00
2023-04-23T03:21:13.717Z,100.00
2023-04-23T03:23:43.218Z,100.00
2023-04-23T03:26:11.404Z,100.00
2023-04-23T03:28:39.583Z,100.00
2023-04-23T03:31:08.073Z,100.00
2023-04-23T03:33:36.351Z,100.00
2023-04-23T03:36:05.312Z,100.00
2023-04-23T03:38:34.218Z,100.00
2023-04-23T03:41:05.968Z,100.00
2023-04-23T03:43:34.143Z,100.00
2023-04-23T03:46:06.620Z,100.00
2023-04-23T03:48:39.209Z,100.00
2023-04-23T03:51:12.956Z,100.00
2023-04-23T03:53:46.628Z,100.00
2023-04-23T03:56:36.032Z,100.00
2023-04-23T03:59:25.993Z,100.00
2023-04-23T04:01:56.386Z,100.00
2023-04-23T04:04:36.667Z,100.00
2023-04-23T04:07:30.007Z,100.00
2023-04-23T04:10:12.179Z,100.00
2023-04-23T04:12:42.384Z,100.00
2023-04-23T04:15:12.723Z,100.00
2023-04-23T04:17:41.281Z,100.00
2023-04-23T04:20:11.153Z,100.00
2023-04-23T04:22:39.530Z,100.00
2023-04-23T04:25:09.252Z,100.00
2023-04-23T04:27:37.559Z,100.00
2023-04-23T04:30:09.315Z,100.00
2023-04-23T04:32:38.758Z,100.00
2023-04-23T04:35:10.549Z,100.00
2023-04-23T04:37:39.896Z,100.00
2023-04-23T04:40:11.381Z,100.00
2023-04-23T04:42:40.123Z,100.00
2023-04-23T04:45:11.640Z,100.00
2023-04-23T04:47:39.820Z,71.46
2023-04-23T04:50:09.587Z,100.00
2023-04-23T04:52:38.001Z,100.00
2023-04-23T04:55:07.979Z,100.00
2023-04-23T04:57:36.591Z,100.00
2023-04-23T05:00:27.903Z,100.00
2023-04-23T05:02:57.028Z,100.00
2023-04-23T05:05:26.733Z,100.00
2023-04-23T05:07:59.097Z,100.00
2023-04-23T05:10:27.307Z,100.00
2023-04-23T05:12:55.642Z,100.00
2023-04-23T05:15:25.294Z,100.00
2023-04-23T05:17:54.256Z,100.00
2023-04-23T05:20:23.404Z,100.00
2023-04-23T05:22:52.195Z,100.00
2023-04-23T05:25:20.389Z,100.00
2023-04-23T05:27:48.567Z,100.00
2023-04-23T05:30:17.136Z,100.00
2023-04-23T05:32:47.159Z,100.00
2023-04-23T05:35:15.378Z,100.00
2023-04-23T05:37:43.973Z,100.00
2023-04-23T05:40:13.200Z,100.00
2023-04-23T05:42:41.381Z,100.00
2023-04-23T05:45:11.065Z,100.00
2023-04-23T05:47:39.247Z,100.00
2023-04-23T05:50:11.530Z,100.00
2023-04-23T05:52:39.777Z,100.00
2023-04-23T05:55:09.614Z,100.00
2023-04-23T05:57:38.726Z,100.00
2023-04-23T06:00:11.851Z,100.00
2023-04-23T06:02:43.516Z,100.00
2023-04-23T06:05:13.510Z,100.00
2023-04-23T06:07:42.968Z,100.00
2023-04-23T06:10:13.066Z,100.00
2023-04-23T06:12:59.036Z,100.00
2023-04-23T06:15:27.358Z,100.00
2023-04-23T06:17:57.977Z,100.00
2023-04-23T06:20:27.779Z,100.00
2023-04-23T06:22:56.480Z,100.00
2023-04-23T06:25:25.816Z,100.00
2023-04-23T06:27:53.950Z,100.00
2023-04-23T06:30:25.991Z,100.00
2023-04-23T06:32:54.508Z,100.00
2023-04-23T06:35:22.935Z,100.00
2023-04-23T06:37:52.443Z,100.00
2023-04-23T06:40:20.920Z,100.00
2023-04-23T06:42:49.137Z,100.00
2023-04-23T06:45:33.249Z,100.00
2023-04-23T06:48:01.844Z,100.00
2023-04-23T06:50:30.097Z,100.00
2023-04-23T06:52:59.621Z,100.00
2023-04-23T06:55:29.038Z,100.00
2023-04-23T06:57:58.409Z,100.00
2023-04-23T07:00:26.933Z,100.00
2023-04-23T07:02:55.211Z,100.00
2023-04-23T07:05:23.661Z,100.00
2023-04-23T07:07:53.960Z,100.00
2023-04-23T07:10:24.062Z,100.00
2023-04-23T07:12:52.213Z,100.00
2023-04-23T07:15:20.448Z,100.00
2023-04-23T07:17:48.663Z,100.00
2023-04-23T07:20:16.885Z,99.97
2023-04-23T07:22:46.970Z,99.63
2023-04-23T07:25:15.222Z,97.58
2023-04-23T07:27:44.737Z,98.22
2023-04-23T07:30:14.264Z,95.87
2023-04-23T07:32:42.443Z,94.99
2023-04-23T07:35:11.520Z,92.77
2023-04-23T07:37:39.687Z,93.00
2023-04-23T07:40:09.537Z,92.07
2023-04-23T07:42:37.699Z,91.52
2023-04-23T07:45:08.887Z,90.66
2023-04-23T07:47:37.148Z,89.96
2023-04-23T07:50:06.588Z,88.78
2023-04-23T07:52:35.840Z,87.39
2023-04-23T07:55:04.231Z,86.60
2023-04-23T07:57:32.384Z,86.37
2023-04-23T08:00:00.900Z,85.11
2023-04-23T08:02:30.602Z,85.21
2023-04-23T08:05:04.380Z,85.07
2023-04-23T08:07:32.793Z,85.09
2023-04-23T08:10:04.195Z,85.64
2023-04-23T08:12:34.110Z,85.51
2023-04-23T08:15:02.712Z,84.70
2023-04-23T08:17:38.772Z,84.17
2023-04-23T08:20:08.570Z,84.18
2023-04-23T08:22:36.690Z,83.84
2023-04-23T08:25:05.692Z,83.61
2023-04-23T08:27:33.952Z,83.00
2023-04-23T08:30:02.158Z,83.15
2023-04-23T08:32:31.148Z,83.01
2023-04-23T08:35:08.019Z,84.01
2023-04-23T08:37:36.265Z,82.91
2023-04-23T08:40:05.772Z,82.72
2023-04-23T08:42:39.838Z,82.19
2023-04-23T08:45:09.598Z,81.47
2023-04-23T08:47:42.949Z,81.75
2023-04-23T08:50:15.138Z,81.09
2023-04-23T08:52:48.030Z,81.70
2023-04-23T08:55:18.869Z,82.23
2023-04-23T08:57:48.414Z,81.95
2023-04-23T09:00:19.130Z,81.15
2023-04-23T09:02:49.656Z,80.35
2023-04-23T09:05:19.679Z,80.53
2023-04-23T09:07:47.965Z,79.81
2023-04-23T09:10:18.590Z,79.74
2023-04-23T09:12:48.274Z,80.84
2023-04-23T09:15:19.326Z,80.57
2023-04-23T09:17:49.860Z,79.58
2023-04-23T09:20:19.528Z,79.77
2023-04-23T09:22:49.283Z,80.09
2023-04-23T09:25:20.285Z,79.70
2023-04-23T09:27:50.830Z,79.74
2023-04-23T09:30:20.095Z,80.54
2023-04-23T09:32:49.599Z,80.43
2023-04-23T09:35:20.698Z,79.05
2023-04-23T09:37:52.447Z,78.57
2023-04-23T09:40:25.748Z,78.87
2023-04-23T09:42:55.115Z,76.67
2023-04-23T09:45:25.080Z,75.26
2023-04-23T09:47:55.384Z,74.71
2023-04-23T09:50:34.661Z,75.27
2023-04-23T09:53:02.864Z,76.20
2023-04-23T09:55:35.561Z,76.65
2023-04-23T09:58:05.393Z,76.21
2023-04-23T10:00:38.755Z,76.50
2023-04-23T10:03:10.240Z,75.50
2023-04-23T10:06:00.561Z,74.53
2023-04-23T10:08:31.573Z,74.19
2023-04-23T10:11:20.125Z,74.72
2023-04-23T10:13:49.236Z,75.46
2023-04-23T10:16:23.379Z,75.98
2023-04-23T10:18:55.378Z,73.66
2023-04-23T10:21:36.727Z,73.37
2023-04-23T10:24:15.817Z,74.14
2023-04-23T10:26:44.927Z,72.68
2023-04-23T10:29:16.547Z,72.47
2023-04-23T10:31:47.221Z,71.94
2023-04-23T10:34:16.717Z,72.95
2023-04-23T10:36:46.400Z,73.27
2023-04-23T10:39:24.134Z,73.05
2023-04-23T10:41:58.671Z,72.96
2023-04-23T10:44:56.778Z,73.47
2023-04-23T10:47:23.710Z,72.87
2023-04-23T10:49:52.866Z,71.64
2023-04-23T10:52:24.387Z,73.41
2023-04-23T10:55:00.049Z,72.66
2023-04-23T10:57:28.580Z,72.09
2023-04-23T10:59:58.928Z,71.11
2023-04-23T11:02:27.743Z,71.58
2023-04-23T11:04:58.222Z,71.83
2023-04-23T11:07:34.526Z,72.05
2023-04-23T11:10:14.280Z,71.16
2023-04-23T11:12:42.935Z,71.34
2023-04-23T11:15:16.033Z,71.45
2023-04-23T11:18:01.806Z,73.77
2023-04-23T11:20:30.081Z,73.24
2023-04-23T11:22:59.627Z,72.36
2023-04-23T11:25:30.386Z,72.00
2023-04-23T11:27:59.490Z,69.76
2023-04-23T11:30:29.768Z,67.24
2023-04-23T11:33:00.389Z,67.69
2023-04-23T11:35:30.480Z,67.95
2023-04-23T11:38:00.068Z,64.86
2023-04-23T11:40:30.972Z,65.68
2023-04-23T11:42:59.424Z,64.13
2023-04-23T11:45:29.950Z,63.27
2023-04-23T11:48:01.181Z,64.18
2023-04-23T11:50:32.963Z,62.38
2023-04-23T11:53:07.961Z,60.71
2023-04-23T11:55:36.156Z,61.39
2023-04-23T11:58:04.527Z,62.67
2023-04-23T12:00:32.766Z,61.44
2023-04-23T12:03:02.894Z,62.39
2023-04-23T12:05:34.281Z,61.92
2023-04-23T12:08:19.342Z,60.84
2023-04-23T12:10:51.738Z,60.77
2023-04-23T12:13:23.554Z,62.84
2023-04-23T12:15:56.415Z,59.14
2023-04-23T12:18:29.165Z,59.50
2023-04-23T12:20:57.503Z,59.03
2023-04-23T12:23:29.448Z,60.04
2023-04-23T12:25:58.480Z,60.54
2023-04-23T12:28:27.105Z,60.06
2023-04-23T12:31:00.980Z,58.25
2023-04-23T12:33:31.082Z,59.53
2023-04-23T12:36:00.913Z,58.12
2023-04-23T12:38:31.425Z,59.68
2023-04-23T12:41:01.797Z,59.04
2023-04-23T12:43:30.054Z,58.93
2023-04-23T12:45:58.675Z,59.25
2023-04-23T12:48:26.896Z,57.88
2023-04-23T12:50:55.099Z,55.82
2023-04-23T12:53:23.250Z,55.99
2023-04-23T12:55:52.766Z,54.04
2023-04-23T12:58:20.894Z,54.38
2023-04-23T13:00:49.066Z,54.33
2023-04-23T13:03:19.235Z,55.21
2023-04-23T13:05:48.059Z,53.84
2023-04-23T13:08:16.187Z,54.56
2023-04-23T13:10:44.889Z,53.23
2023-04-23T13:13:14.370Z,52.97
2023-04-23T13:15:43.570Z,53.93
2023-04-23T13:18:11.710Z,51.65
2023-04-23T13:20:40.319Z,52.93
2023-04-23T13:23:08.825Z,53.18
2023-04-23T13:25:37.092Z,54.15
2023-04-23T13:28:05.362Z,53.94
2023-04-23T13:30:34.894Z,54.16
2023-04-23T13:33:03.126Z,54.38
2023-04-23T13:35:31.324Z,54.10
2023-04-23T13:38:00.373Z,53.20
2023-04-23T13:40:28.657Z,53.22
2023-04-23T13:42:56.809Z,54.02
2023-04-23T13:45:25.019Z,56.50
2023-04-23T13:47:54.573Z,55.91
2023-04-23T13:50:22.834Z,53.60
2023-04-23T13:52:50.986Z,53.15
2023-04-23T13:55:19.383Z,53.69
2023-04-23T13:57:47.569Z,53.60
2023-04-23T14:00:17.056Z,54.86
2023-04-23T14:02:45.331Z,53.17
2023-04-23T14:05:15.144Z,52.65
2023-04-23T14:07:43.405Z,54.12
2023-04-23T14:10:18.852Z,55.98
2023-04-23T14:12:47.574Z,55.27
2023-04-23T14:15:15.766Z,54.59
2023-04-23T14:17:45.358Z,54.84
2023-04-23T14:20:15.921Z,54.21
2023-04-23T14:22:44.395Z,54.95
2023-04-23T14:25:25.600Z,55.13
2023-04-23T14:27:58.076Z,54.04
2023-04-23T14:30:27.919Z,52.79
2023-04-23T14:32:56.493Z,51.79
2023-04-23T14:35:41.623Z,53.68
2023-04-23T14:38:11.277Z,52.93
2023-04-23T14:40:39.539Z,52.26
2023-04-23T14:43:15.204Z,52.27
2023-04-23T14:45:44.158Z,52.77
2023-04-23T14:48:12.519Z,53.58
2023-04-23T14:50:42.080Z,55.40
2023-04-23T14:53:10.655Z,55.14
2023-04-23T14:55:39.915Z,54.51
2023-04-23T14:58:08.089Z,53.83
2023-04-23T15:00:36.314Z,54.56
2023-04-23T15:03:10.049Z,55.48
2023-04-23T15:05:39.935Z,54.21
2023-04-23T15:08:09.580Z,55.27
2023-04-23T15:10:38.412Z,56.24
2023-04-23T15:13:10.301Z,55.79
2023-04-23T15:15:45.298Z,54.90
2023-04-23T15:18:14.848Z,54.24
2023-04-23T15:20:43.472Z,53.96
2023-04-23T15:23:13.042Z,54.00
2023-04-23T15:25:41.320Z,53.28
2023-04-23T15:28:09.629Z,53.67
2023-04-23T15:30:39.724Z,54.56
2023-04-23T15:33:08.017Z,54.72
2023-04-23T15:35:36.203Z,54.32
2023-04-23T15:38:04.352Z,54.20
2023-04-23T15:40:41.932Z,54.93
2023-04-23T15:43:13.335Z,55.47
2023-04-23T15:45:42.657Z,55.58
2023-04-23T15:48:11.194Z,54.63
2023-04-23T15:50:39.420Z,55.52
2023-04-23T15:53:08.130Z,56.57
2023-04-23T15:55:39.133Z,56.73
2023-04-23T15:58:07.800Z,57.14
2023-04-23T16:00:36.774Z,56.98
2023-04-23T16:03:06.682Z,57.08
2023-04-23T16:05:37.147Z,57.61
2023-04-23T16:08:09.368Z,57.21
2023-04-23T16:10:40.159Z,58.00
2023-04-23T16:13:08.418Z,57.57
2023-04-23T16:15:36.892Z,57.68
2023-04-23T16:18:06.109Z,58.61
2023-04-23T16:20:34.749Z,59.50
2023-04-23T16:23:02.910Z,60.43
2023-04-23T16:25:31.141Z,60.79
2023-04-23T16:28:00.920Z,60.86
2023-04-23T16:30:29.450Z,61.03
2023-04-23T16:32:57.877Z,61.08
2023-04-23T16:35:26.164Z,60.96
2023-04-23T16:37:54.362Z,61.14
2023-04-23T16:40:22.611Z,61.65
2023-04-23T16:42:50.913Z,61.78
2023-04-23T16:45:23.052Z,61.72
2023-04-23T16:47:51.543Z,61.90
2023-04-23T16:50:19.991Z,61.99
2023-04-23T16:52:48.516Z,61.32
2023-04-23T16:55:16.966Z,61.73
2023-04-23T16:57:45.120Z,61.06
2023-04-23T17:00:16.439Z,61.38
2023-04-23T17:02:46.102Z,60.89
2023-04-23T17:05:14.398Z,60.49
2023-04-23T17:07:43.918Z,60.18
2023-04-23T17:10:12.579Z,60.20
2023-04-23T17:12:40.811Z,60.72
2023-04-23T17:15:11.092Z,61.34
2023-04-23T17:17:39.360Z,63.12
2023-04-23T17:20:10.194Z,62.63
2023-04-23T17:22:38.593Z,63.79
2023-04-23T17:25:08.338Z,64.12
2023-04-23T17:27:36.666Z,65.55
2023-04-23T17:30:06.704Z,67.75
2023-04-23T17:32:35.676Z,68.69
2023-04-23T17:35:09.926Z,70.59
2023-04-23T17:37:40.090Z,72.83
2023-04-23T17:40:10.795Z,74.33
2023-04-23T17:42:38.951Z,73.44
2023-04-23T17:45:08.501Z,74.13
2023-04-23T17:47:37.372Z,74.69
2023-04-23T17:50:09.379Z,76.31
2023-04-23T17:52:40.185Z,79.52
2023-04-23T17:55:09.407Z,82.28
2023-04-23T17:57:37.636Z,88.47
2023-04-23T18:00:09.670Z,94.52
2023-04-23T18:02:41.407Z,95.25
2023-04-23T18:05:14.629Z,95.30
2023-04-23T18:07:46.537Z,95.91
2023-04-23T18:10:14.952Z,95.95
2023-04-23T18:12:43.158Z,94.53
2023-04-23T18:15:12.454Z,92.53
2023-04-23T18:17:40.879Z,93.10
2023-04-23T18:20:10.305Z,92.97
2023-04-23T18:22:38.803Z,92.51
2023-04-23T18:25:10.355Z,91.59
2023-04-23T18:27:38.753Z,92.28
2023-04-23T18:30:09.008Z,91.63
2023-04-23T18:32:44.379Z,93.92
2023-04-23T18:35:12.675Z,93.87
2023-04-23T18:37:48.424Z,92.92
2023-04-23T18:40:17.973Z,92.42
2023-04-23T18:42:46.254Z,92.79
2023-04-23T18:45:14.535Z,94.83
2023-04-23T18:47:50.120Z,95.40
2023-04-23T18:50:37.497Z,96.55
2023-04-23T18:53:06.122Z,95.75
2023-04-23T18:55:35.679Z,98.25
2023-04-23T18:58:04.661Z,97.33
2023-04-23T19:00:32.992Z,97.70
2023-04-23T19:03:06.474Z,98.18
2023-04-23T19:05:37.617Z,98.85
2023-04-23T19:08:06.242Z,98.61
2023-04-23T19:10:37.524Z,98.90
2023-04-23T19:13:06.970Z,99.21
2023-04-23T19:15:36.072Z,99.37
2023-04-23T19:18:29.640Z,100.00
2023-04-23T19:20:58.289Z,100.00
2023-04-23T19:23:26.625Z,100.00
2023-04-23T19:25:57.209Z,100.00
2023-04-23T19:28:25.727Z,100.00
2023-04-23T19:30:54.046Z,100.00
2023-04-23T19:33:22.205Z,100.00
2023-04-23T19:35:50.796Z,100.00
2023-04-23T19:38:19.977Z,100.00
2023-04-23T19:40:48.506Z,100.00
2023-04-23T19:43:18.882Z,100.00
2023-04-23T19:45:47.233Z,100.00
2023-04-23T19:48:15.605Z,100.00
2023-04-23T19:50:44.277Z,100.00
2023-04-23T19:53:12.510Z,100.00
2023-04-23T19:55:40.705Z,100.00
2023-04-23T19:58:08.848Z,100.00
2023-04-23T20:00:41.377Z,100.00
2023-04-23T20:03:10.868Z,100.00
2023-04-23T20:05:42.297Z,100.00
2023-04-23T20:08:15.465Z,100.00
2023-04-23T20:10:45.297Z,100.00
2023-04-23T20:13:13.463Z,99.50
2023-04-23T20:15:43.036Z,99.97
2023-04-23T20:18:11.281Z,99.05
2023-04-23T20:20:40.322Z,98.79
2023-04-23T20:23:08.518Z,98.79
2023-04-23T20:25:37.900Z,100.00
2023-04-23T20:28:06.685Z,99.49
2023-04-23T20:30:36.348Z,99.21
2023-04-23T20:33:07.164Z,99.36
2023-04-23T20:35:35.540Z,99.15
2023-04-23T20:38:03.783Z,98.39
2023-04-23T20:40:34.416Z,98.77
2023-04-23T20:43:04.495Z,100.00
2023-04-23T20:45:34.156Z,99.73
2023-04-23T20:48:03.728Z,98.67
2023-04-23T20:50:33.380Z,97.92
2023-04-23T20:53:01.654Z,96.60
2023-04-23T20:55:29.875Z,96.42
2023-04-23T20:57:58.029Z,96.15
2023-04-23T21:00:27.886Z,96.01
2023-04-23T21:02:56.416Z,97.48
2023-04-23T21:05:24.676Z,97.00
2023-04-23T21:07:54.279Z,98.49
2023-04-23T21:10:22.661Z,100.00
2023-04-23T21:12:51.313Z,99.59
2023-04-23T21:15:19.654Z,100.00
2023-04-23T21:17:47.834Z,100.00
2023-04-23T21:20:16.048Z,100.00
2023-04-23T21:22:44.249Z,100.00
2023-04-23T21:25:13.774Z,100.00
2023-04-23T21:27:45.464Z,100.00
2023-04-23T21:30:34.506Z,100.00
2023-04-23T21:33:02.732Z,100.00
2023-04-23T21:35:30.967Z,100.00
2023-04-23T21:38:02.097Z,100.00
2023-04-23T21:40:34.026Z,100.00
2023-04-23T21:43:03.005Z,100.00
2023-04-23T21:45:31.730Z,100.00
2023-04-23T21:48:00.174Z,100.00
2023-04-23T21:50:31.446Z,100.00
2023-04-23T21:53:00.608Z,100.00
2023-04-23T21:55:32.124Z,100.00
2023-04-23T21:58:15.747Z,100.00
2023-04-23T22:00:46.235Z,100.00
2023-04-23T22:03:20.392Z,100.00
2023-04-23T22:08:55.905Z,100.00
2023-04-23T22:11:26.064Z,100.00
2023-04-23T22:13:54.244Z,100.00
2023-04-23T22:16:28.553Z,100.00
2023-04-23T22:18:57.982Z,100.00
2023-04-23T22:21:26.357Z,100.00
2023-04-23T22:23:54.527Z,100.00
2023-04-23T22:26:22.765Z,100.00
2023-04-23T22:28:52.244Z,100.00
2023-04-23T22:31:20.445Z,100.00
2023-04-23T22:33:48.615Z,100.00
2023-04-23T22:36:16.936Z,100.00
2023-04-23T22:38:45.135Z,100.00
2023-04-23T22:41:13.773Z,100.00
2023-04-23T22:43:41.904Z,100.00
2023-04-23T22:46:11.537Z,100.00
2023-04-23T22:48:45.077Z,100.00
2023-04-23T22:51:13.393Z,100.00
2023-04-23T22:53:41.922Z,99.89
2023-04-23T22:56:10.173Z,98.98
2023-04-23T22:58:38.412Z,97.90
2023-04-23T23:01:06.877Z,98.24
2023-04-23T23:03:36.592Z,97.59
2023-04-23T23:06:05.540Z,97.53
2023-04-23T23:08:33.699Z,96.96
2023-04-23T23:11:01.847Z,97.30
2023-04-23T23:13:30.638Z,96.35
2023-04-23T23:16:02.283Z,96.66
2023-04-23T23:18:30.476Z,95.78
2023-04-23T23:20:59.966Z,96.62
2023-04-23T23:23:28.221Z,95.99
2023-04-23T23:25:58.772Z,94.97
2023-04-23T23:28:28.062Z,95.53
2023-04-23T23:30:57.873Z,95.12
2023-04-23T23:33:27.104Z,95.03
2023-04-23T23:35:55.732Z,95.83
2023-04-23T23:38:25.386Z,94.94
2023-04-23T23:40:53.552Z,95.33
2023-04-23T23:43:21.706Z,95.46
2023-04-23T23:45:49.909Z,96.23
2023-04-23T23:48:18.350Z,96.07
2023-04-23T23:50:46.809Z,97.51
2023-04-23T23:53:14.947Z,97.48
2023-04-23T23:55:44.481Z,97.15
2023-04-23T23:58:12.618Z,98.03
